sensor_id;sensor_type;location;lat;lon;timestamp;pressure;altitude;pressure_sealevel;temperature;humidity
79782;BME280;69262;48.470;7.960;2023-05-10T09:35:18;99567.47;;;19.77;63.13
79782;BME280;69262;48.470;7.960;2023-05-10T09:38:19;99578.66;;;19.76;62.91
79782;BME280;69262;48.470;7.960;2023-05-10T09:41:21;99579.50;;;19.76;63.30
79782;BME280;69262;48.470;7.960;2023-05-10T09:44:22;99587.13;;;19.74;62.77
79782;BME280;69262;48.470;7.960;2023-05-10T09:47:22;99598.69;;;19.76;63.00
79782;BME280;69262;48.470;7.960;2023-05-10T09:50:25;99595.19;;;19.81;62.17
79782;BME280;69262;48.470;7.960;2023-05-10T09:53:25;99588.44;;;19.88;61.90
79782;BME280;69262;48.470;7.960;2023-05-10T09:56:35;99591.88;;;19.96;61.86
79782;BME280;69262;48.470;7.960;2023-05-10T09:59:42;99596.28;;;19.97;61.57
79782;BME280;69262;48.470;7.960;2023-05-10T10:02:45;99598.44;;;19.95;62.17
79782;BME280;69262;48.470;7.960;2023-05-10T10:05:47;99593.53;;;19.97;62.59
79782;BME280;69262;48.470;7.960;2023-05-10T10:08:48;99589.53;;;19.87;62.88
79782;BME280;69262;48.470;7.960;2023-05-10T10:11:48;99599.16;;;19.90;62.64
79782;BME280;69262;48.470;7.960;2023-05-10T10:14:49;99600.81;;;19.91;62.20
79782;BME280;69262;48.470;7.960;2023-05-10T10:17:51;99604.88;;;19.88;61.98
79782;BME280;69262;48.470;7.960;2023-05-10T10:20:54;99595.59;;;19.89;61.87
79782;BME280;69262;48.470;7.960;2023-05-10T10:23:54;99595.34;;;19.91;62.31
79782;BME280;69262;48.470;7.960;2023-05-10T10:26:58;99602.91;;;20.01;62.44
79782;BME280;69262;48.470;7.960;2023-05-10T10:30:23;99601.34;;;20.05;62.65
79782;BME280;69262;48.470;7.960;2023-05-10T10:36:46;99588.88;;;19.97;62.77
79782;BME280;69262;48.470;7.960;2023-05-10T10:39:49;99596.03;;;20.15;62.47
79782;BME280;69262;48.470;7.960;2023-05-10T10:42:50;99584.06;;;20.04;62.37
79782;BME280;69262;48.470;7.960;2023-05-10T10:46:16;99610.31;;;20.17;62.63
79782;BME280;69262;48.470;7.960;2023-05-10T10:49:17;99602.66;;;20.19;62.30
79782;BME280;69262;48.470;7.960;2023-05-10T10:55:28;99600.31;;;20.28;62.74
79782;BME280;69262;48.470;7.960;2023-05-10T10:58:30;99590.00;;;20.35;61.64
79782;BME280;69262;48.470;7.960;2023-05-10T11:01:33;99587.88;;;20.37;61.39
79782;BME280;69262;48.470;7.960;2023-05-10T11:04:43;99578.78;;;20.36;61.46
79782;BME280;69262;48.470;7.960;2023-05-10T11:07:59;99589.16;;;20.34;61.86
79782;BME280;69262;48.470;7.960;2023-05-10T11:14:06;99582.72;;;20.24;60.09
79782;BME280;69262;48.470;7.960;2023-05-10T11:17:26;99575.50;;;20.01;59.23
79782;BME280;69262;48.470;7.960;2023-05-10T11:20:28;99570.53;;;20.14;60.76
79782;BME280;69262;48.470;7.960;2023-05-10T11:26:40;99584.72;;;20.45;59.58
79782;BME280;69262;48.470;7.960;2023-05-10T11:29:40;99573.50;;;20.46;59.00
79782;BME280;69262;48.470;7.960;2023-05-10T11:32:43;99565.56;;;20.33;56.82
79782;BME280;69262;48.470;7.960;2023-05-10T11:35:44;99567.81;;;20.36;56.24
79782;BME280;69262;48.470;7.960;2023-05-10T11:38:45;99583.19;;;20.54;55.33
79782;BME280;69262;48.470;7.960;2023-05-10T11:41:48;99581.28;;;20.55;57.10
79782;BME280;69262;48.470;7.960;2023-05-10T11:44:49;99547.16;;;20.29;56.96
79782;BME280;69262;48.470;7.960;2023-05-10T11:47:49;99575.47;;;20.51;57.74
79782;BME280;69262;48.470;7.960;2023-05-10T11:50:50;99557.28;;;20.28;56.83
79782;BME280;69262;48.470;7.960;2023-05-10T11:53:52;99522.94;;;20.04;57.22
79782;BME280;69262;48.470;7.960;2023-05-10T11:56:54;99572.00;;;20.39;56.78
79782;BME280;69262;48.470;7.960;2023-05-10T11:59:55;99569.91;;;20.46;56.59
79782;BME280;69262;48.470;7.960;2023-05-10T12:02:57;99575.78;;;20.55;57.41
79782;BME280;69262;48.470;7.960;2023-05-10T12:05:58;99564.13;;;20.64;57.02
79782;BME280;69262;48.470;7.960;2023-05-10T12:08:59;99571.03;;;20.67;56.92
79782;BME280;69262;48.470;7.960;2023-05-10T12:12:05;99577.53;;;20.61;57.55
79782;BME280;69262;48.470;7.960;2023-05-10T12:15:10;99569.06;;;20.62;57.83
79782;BME280;69262;48.470;7.960;2023-05-10T12:18:14;99568.69;;;20.59;58.12
79782;BME280;69262;48.470;7.960;2023-05-10T12:21:15;99576.75;;;20.43;56.91
79782;BME280;69262;48.470;7.960;2023-05-10T12:24:15;99576.16;;;20.41;56.97
79782;BME280;69262;48.470;7.960;2023-05-10T12:27:17;99575.16;;;20.47;57.09
79782;BME280;69262;48.470;7.960;2023-05-10T12:30:25;99574.88;;;20.49;57.31
79782;BME280;69262;48.470;7.960;2023-05-10T12:33:26;99571.50;;;20.42;56.76
79782;BME280;69262;48.470;7.960;2023-05-10T12:36:27;99572.47;;;20.53;55.98
79782;BME280;69262;48.470;7.960;2023-05-10T12:39:39;99582.59;;;20.52;56.72
79782;BME280;69262;48.470;7.960;2023-05-10T12:42:40;99576.81;;;20.48;57.62
79782;BME280;69262;48.470;7.960;2023-05-10T12:45:40;99583.44;;;20.53;57.57
79782;BME280;69262;48.470;7.960;2023-05-10T12:48:42;99588.66;;;20.54;57.92
79782;BME280;69262;48.470;7.960;2023-05-10T12:51:42;99586.50;;;20.56;57.94
79782;BME280;69262;48.470;7.960;2023-05-10T12:54:43;99575.97;;;20.48;58.47
